Terminal Aerodrome Forecast
Issued by NWS Sterling, VA

Home | Current Version | Previous Version | Text Only | Print | Product List | Glossary On
Versions: 1 2 3 4 5 6 7 8 9 10 11 12 13
000
FTUS41 KLWX 231125
TAFCHO
TAF
KCHO 231125Z 2312/2412 21009KT P6SM SCT015 OVC060
     FM231400 22012G20KT P6SM SCT040 OVC045
     FM231800 22013G21KT P6SM VCTS BKN050CB BKN100
     FM232300 22011KT P6SM BKN050 BKN100
     FM240700 20010KT 6SM SHRA OVC015=

USA.gov is the U.S. government's official web portal to all federal, state and local government web resources and services.